createdAt,value
2017-11-27T00:01:36.507Z,1.20
2017-11-27T00:04:04.081Z,1.20
2017-11-27T00:06:31.633Z,1.10
2017-11-27T00:08:59.183Z,1.20
2017-11-27T00:11:26.706Z,1.20
2017-11-27T00:13:55.023Z,1.20
2017-11-27T00:16:22.577Z,1.10
2017-11-27T00:18:50.135Z,1.10
2017-11-27T00:21:18.430Z,1.20
2017-11-27T00:23:45.979Z,1.20
2017-11-27T00:26:14.275Z,1.30
2017-11-27T00:28:41.848Z,1.30
2017-11-27T00:31:09.386Z,1.30
2017-11-27T00:33:36.934Z,1.30
2017-11-27T00:36:05.252Z,1.30
2017-11-27T00:38:32.788Z,1.30
2017-11-27T00:41:00.391Z,1.20
2017-11-27T00:43:27.923Z,1.20
2017-11-27T00:45:55.482Z,1.20
2017-11-27T00:48:23.026Z,1.20
2017-11-27T00:50:50.583Z,1.30
2017-11-27T00:53:18.116Z,1.30
2017-11-27T00:55:46.442Z,1.20
2017-11-27T00:58:13.974Z,1.20
2017-11-27T01:00:41.530Z,1.20
2017-11-27T01:03:09.088Z,1.20
2017-11-27T01:05:36.673Z,1.10
2017-11-27T01:08:04.231Z,1.10
2017-11-27T01:10:31.782Z,1.10
2017-11-27T01:12:59.319Z,1.10
2017-11-27T01:15:26.887Z,1.00
2017-11-27T01:17:54.426Z,1.00
2017-11-27T01:20:21.978Z,1.00
2017-11-27T01:22:49.523Z,0.90
2017-11-27T01:25:17.821Z,0.80
2017-11-27T01:27:45.368Z,0.80
2017-11-27T01:30:12.890Z,0.80
2017-11-27T01:32:40.454Z,0.80
2017-11-27T01:35:08.776Z,0.80
2017-11-27T01:37:36.334Z,0.80
2017-11-27T01:40:03.895Z,0.80
2017-11-27T01:42:31.424Z,0.70
2017-11-27T01:44:59.733Z,0.70
2017-11-27T01:47:27.259Z,0.70
2017-11-27T01:49:55.566Z,0.70
2017-11-27T01:52:23.111Z,0.70
2017-11-27T01:54:50.665Z,0.70
2017-11-27T01:57:18.961Z,0.60
2017-11-27T01:59:46.523Z,0.60
2017-11-27T02:02:14.061Z,0.60
2017-11-27T02:04:42.355Z,0.50
2017-11-27T02:07:09.933Z,0.50
2017-11-27T02:09:37.458Z,0.50
2017-11-27T02:12:05.774Z,0.50
2017-11-27T02:14:33.302Z,0.50
2017-11-27T02:17:00.846Z,0.60
2017-11-27T02:19:29.147Z,0.60
2017-11-27T02:21:56.690Z,0.60
2017-11-27T02:24:25.001Z,0.60
2017-11-27T02:26:52.552Z,0.60
2017-11-27T02:29:20.081Z,0.70
2017-11-27T02:31:48.387Z,0.70
2017-11-27T02:34:15.942Z,0.70
2017-11-27T02:36:43.514Z,0.70
2017-11-27T02:39:11.043Z,0.70
2017-11-27T02:41:39.367Z,0.70
2017-11-27T02:44:06.904Z,0.70
2017-11-27T02:46:34.450Z,0.70
2017-11-27T02:49:01.990Z,0.70
2017-11-27T02:51:30.325Z,0.60
2017-11-27T02:53:57.860Z,0.60
2017-11-27T02:56:25.446Z,0.60
2017-11-27T02:58:52.982Z,0.50
2017-11-27T03:01:20.505Z,0.50
2017-11-27T03:03:48.813Z,0.40
2017-11-27T03:06:16.348Z,0.40
2017-11-27T03:08:44.695Z,0.40
2017-11-27T03:11:12.211Z,0.40
2017-11-27T03:13:39.763Z,0.40
2017-11-27T03:16:07.290Z,0.40
2017-11-27T03:18:34.895Z,0.40
2017-11-27T03:21:02.420Z,0.40
2017-11-27T03:23:30.748Z,0.40
2017-11-27T03:25:58.287Z,0.30
2017-11-27T03:28:25.829Z,0.40
2017-11-27T03:30:54.120Z,0.30
2017-11-27T03:33:21.675Z,0.30
2017-11-27T03:35:49.230Z,0.30
2017-11-27T03:38:17.562Z,0.20
2017-11-27T03:40:45.097Z,0.20
2017-11-27T03:43:12.682Z,0.20
2017-11-27T03:45:41.037Z,0.20
2017-11-27T03:48:08.582Z,0.20
2017-11-27T03:50:36.118Z,0.20
2017-11-27T03:53:04.403Z,0.20
2017-11-27T03:55:31.969Z,0.20
2017-11-27T03:58:00.326Z,0.20
2017-11-27T04:00:27.879Z,0.10
2017-11-27T04:02:55.418Z,0.20
2017-11-27T04:05:22.990Z,0.20
2017-11-27T04:07:50.516Z,0.10
2017-11-27T04:10:18.038Z,0.10
2017-11-27T04:12:45.585Z,0.10
2017-11-27T04:15:13.127Z,0.10
2017-11-27T04:17:40.690Z,0.00
2017-11-27T04:20:09.008Z,0.00
2017-11-27T04:22:36.558Z,0.10
2017-11-27T04:25:04.090Z,0.00
2017-11-27T04:27:32.404Z,0.00
2017-11-27T04:29:59.942Z,0.00
2017-11-27T04:32:27.494Z,0.00
2017-11-27T04:34:55.797Z,0.10
2017-11-27T04:37:23.359Z,0.00
2017-11-27T04:39:50.891Z,0.10
2017-11-27T04:42:19.182Z,0.20
2017-11-27T04:44:46.726Z,0.20
2017-11-27T04:47:15.043Z,0.20
2017-11-27T04:49:42.607Z,0.20
2017-11-27T04:52:10.154Z,0.20
2017-11-27T04:54:37.689Z,0.20
2017-11-27T04:57:05.238Z,0.20
2017-11-27T04:59:32.787Z,0.30
2017-11-27T05:02:00.359Z,0.30
2017-11-27T05:04:27.892Z,0.30
2017-11-27T05:06:56.266Z,0.30
2017-11-27T05:09:23.844Z,0.30
2017-11-27T05:11:51.370Z,0.40
2017-11-27T05:14:18.921Z,0.40
2017-11-27T05:16:47.225Z,0.30
2017-11-27T05:19:14.802Z,0.30
2017-11-27T05:21:42.330Z,0.30
2017-11-27T05:24:10.649Z,0.40
2017-11-27T05:26:38.191Z,0.40
2017-11-27T05:29:05.771Z,0.50
2017-11-27T05:31:33.309Z,0.40
2017-11-27T05:34:01.628Z,0.50
2017-11-27T05:36:29.160Z,0.50
2017-11-27T05:38:57.465Z,0.60
2017-11-27T05:41:25.061Z,0.60
2017-11-27T05:43:52.590Z,0.60
2017-11-27T05:46:20.124Z,0.60
2017-11-27T05:48:47.694Z,0.60
2017-11-27T05:51:15.243Z,0.60
2017-11-27T05:53:42.797Z,0.50
2017-11-27T05:56:10.354Z,0.50
2017-11-27T05:58:37.897Z,0.40
2017-11-27T06:01:05.449Z,0.40
2017-11-27T06:03:33.757Z,0.10
2017-11-27T06:06:01.300Z,0.10
2017-11-27T06:08:28.852Z,0.10
2017-11-27T06:10:56.394Z,0.10
2017-11-27T06:13:24.695Z,0.10
2017-11-27T06:15:52.265Z,0.10
2017-11-27T06:18:19.799Z,0.10
2017-11-27T06:20:47.351Z,0.10
2017-11-27T06:23:15.674Z,0.00
2017-11-27T06:25:43.249Z,0.00
2017-11-27T06:28:12.424Z,0.10
2017-11-27T06:30:40.902Z,0.10
2017-11-27T06:33:08.462Z,0.20
2017-11-27T06:35:35.994Z,0.20
2017-11-27T06:38:03.536Z,0.20
2017-11-27T06:40:31.833Z,0.20
2017-11-27T06:42:59.394Z,0.20
2017-11-27T06:45:26.941Z,0.20
2017-11-27T06:47:54.516Z,0.20
2017-11-27T06:50:22.041Z,0.20
2017-11-27T06:52:49.571Z,0.30
2017-11-27T06:55:17.127Z,0.30
2017-11-27T06:57:44.672Z,0.30
2017-11-27T07:00:12.214Z,0.40
2017-11-27T07:02:39.766Z,0.50
2017-11-27T07:05:07.298Z,0.50
2017-11-27T07:07:35.675Z,0.60
2017-11-27T07:10:03.207Z,0.60
2017-11-27T07:12:30.936Z,0.70
2017-11-27T07:14:58.733Z,0.70
2017-11-27T07:17:26.292Z,0.80
2017-11-27T07:19:53.821Z,0.70
2017-11-27T07:22:21.969Z,0.80
2017-11-27T07:24:50.460Z,0.80
2017-11-27T07:27:18.007Z,0.80
2017-11-27T07:29:46.335Z,0.80
2017-11-27T07:32:13.897Z,0.80
2017-11-27T07:34:41.439Z,0.80
2017-11-27T07:37:09.032Z,0.80
2017-11-27T07:39:43.954Z,0.90
2017-11-27T07:42:11.501Z,0.90
2017-11-27T07:44:39.062Z,0.90
2017-11-27T07:47:06.595Z,1.00
2017-11-27T07:49:34.145Z,1.10
2017-11-27T07:52:02.477Z,1.20
2017-11-27T07:54:30.015Z,1.20
2017-11-27T07:56:57.574Z,1.80
2017-11-27T07:59:25.125Z,1.80
2017-11-27T08:01:52.670Z,1.40
2017-11-27T08:04:20.339Z,1.50
2017-11-27T08:06:47.900Z,1.50
2017-11-27T08:09:16.227Z,1.60
2017-11-27T08:11:43.773Z,1.60
2017-11-27T08:14:11.298Z,1.60
2017-11-27T08:16:38.843Z,2.50
2017-11-27T08:19:06.375Z,3.50
2017-11-27T08:21:33.933Z,5.00
2017-11-27T08:24:01.463Z,5.20
2017-11-27T08:26:29.013Z,4.50
2017-11-27T08:28:56.562Z,4.30
2017-11-27T08:31:24.858Z,3.10
2017-11-27T08:33:52.405Z,3.10
2017-11-27T08:36:20.702Z,2.00
2017-11-27T08:38:48.259Z,2.00
2017-11-27T08:41:16.463Z,2.00
2017-11-27T08:43:43.986Z,2.00
2017-11-27T08:46:11.530Z,2.20
2017-11-27T08:48:39.847Z,4.40
2017-11-27T08:51:07.402Z,4.40
2017-11-27T08:53:34.946Z,4.20
2017-11-27T08:56:02.470Z,4.00
2017-11-27T08:58:30.015Z,3.80
2017-11-27T09:00:57.550Z,4.30
2017-11-27T09:03:25.102Z,4.40
2017-11-27T09:05:52.628Z,4.90
2017-11-27T09:08:20.187Z,5.50
2017-11-27T09:10:48.497Z,5.70
2017-11-27T09:13:16.047Z,5.70
2017-11-27T09:15:43.590Z,5.50
2017-11-27T09:18:11.900Z,5.40
2017-11-27T09:20:39.458Z,5.40
2017-11-27T09:23:06.999Z,5.70
2017-11-27T09:25:34.565Z,5.20
2017-11-27T09:28:02.136Z,4.40
2017-11-27T09:30:29.683Z,3.80
2017-11-27T09:32:57.211Z,4.00
2017-11-27T09:35:25.544Z,4.30
2017-11-27T09:37:53.071Z,4.30
2017-11-27T09:40:20.602Z,4.10
2017-11-27T09:42:48.156Z,4.60
2017-11-27T09:45:15.690Z,4.40
2017-11-27T09:47:43.246Z,4.20
2017-11-27T09:50:10.773Z,3.90
2017-11-27T09:52:38.345Z,3.90
2017-11-27T09:55:05.872Z,4.30
2017-11-27T09:57:34.199Z,4.90
2017-11-27T10:00:01.740Z,4.90
2017-11-27T10:02:29.290Z,5.00
2017-11-27T10:04:56.848Z,4.20
2017-11-27T10:07:24.422Z,4.10
2017-11-27T10:09:51.981Z,4.40
2017-11-27T10:12:19.514Z,4.90
2017-11-27T10:14:47.836Z,5.20
2017-11-27T10:17:15.369Z,5.20
2017-11-27T10:19:42.939Z,4.60
2017-11-27T10:22:10.491Z,4.00
2017-11-27T10:24:38.065Z,3.90
2017-11-27T10:27:05.633Z,4.00
2017-11-27T10:29:33.171Z,3.90
2017-11-27T10:32:00.720Z,3.70
2017-11-27T10:34:28.262Z,3.60
2017-11-27T10:36:56.573Z,3.50
2017-11-27T10:39:24.102Z,3.50
2017-11-27T10:41:52.420Z,3.40
2017-11-27T10:44:19.954Z,3.40
2017-11-27T10:46:47.494Z,3.60
2017-11-27T10:49:15.812Z,3.60
2017-11-27T10:51:43.338Z,3.60
2017-11-27T10:54:11.653Z,3.60
2017-11-27T10:56:39.189Z,3.60
2017-11-27T10:59:06.747Z,3.70
2017-11-27T11:01:34.299Z,3.70
2017-11-27T11:04:01.865Z,3.70
2017-11-27T11:06:29.431Z,3.70
2017-11-27T11:08:57.018Z,3.70
2017-11-27T11:11:24.590Z,3.60
2017-11-27T11:13:53.007Z,3.70
2017-11-27T11:16:20.540Z,3.70
2017-11-27T11:18:48.863Z,3.90
2017-11-27T11:21:16.407Z,3.90
2017-11-27T11:23:43.960Z,3.90
2017-11-27T11:26:12.299Z,4.20
2017-11-27T11:28:39.859Z,4.10
2017-11-27T11:31:07.379Z,4.00
2017-11-27T11:33:35.023Z,4.20
2017-11-27T11:36:03.342Z,4.10
2017-11-27T11:38:30.877Z,4.10
2017-11-27T11:40:58.415Z,4.30
2017-11-27T11:43:26.711Z,4.40
2017-11-27T11:45:54.262Z,4.30
2017-11-27T11:48:22.574Z,4.50
2017-11-27T11:50:50.129Z,4.50
2017-11-27T11:53:17.666Z,4.50
2017-11-27T11:55:45.234Z,4.50
2017-11-27T11:58:12.814Z,4.30
2017-11-27T12:00:40.375Z,4.30
2017-11-27T12:03:07.903Z,4.50
2017-11-27T12:05:36.211Z,4.40
2017-11-27T12:08:04.547Z,4.40
2017-11-27T12:10:32.095Z,4.30
2017-11-27T12:12:59.655Z,4.30
2017-11-27T12:15:27.189Z,4.20
2017-11-27T12:17:54.738Z,4.10
2017-11-27T12:20:23.046Z,4.70
2017-11-27T12:22:50.602Z,4.70
2017-11-27T12:25:18.127Z,5.10
2017-11-27T12:27:46.452Z,5.00
2017-11-27T12:30:13.987Z,5.00
2017-11-27T12:32:41.531Z,4.90
2017-11-27T12:35:09.132Z,4.60
2017-11-27T12:37:36.725Z,4.40
2017-11-27T12:40:05.025Z,4.30
2017-11-27T12:42:32.606Z,4.30
2017-11-27T12:45:00.135Z,4.40
2017-11-27T12:47:27.702Z,4.40
2017-11-27T12:49:55.238Z,4.30
2017-11-27T12:52:22.794Z,4.30
2017-11-27T12:54:50.341Z,4.40
2017-11-27T12:57:17.908Z,4.30
2017-11-27T12:59:45.446Z,4.30
2017-11-27T13:02:12.991Z,4.40
2017-11-27T13:04:40.532Z,4.40
2017-11-27T13:07:08.061Z,4.30
2017-11-27T13:09:35.614Z,4.30
2017-11-27T13:12:03.157Z,4.30
2017-11-27T13:14:30.731Z,4.40
2017-11-27T13:16:58.341Z,4.40
2017-11-27T13:19:25.939Z,4.40
2017-11-27T13:21:53.491Z,4.40
2017-11-27T13:24:21.034Z,4.40
2017-11-27T13:26:48.593Z,4.50
2017-11-27T13:29:16.138Z,4.40
2017-11-27T13:31:43.694Z,4.40
2017-11-27T13:34:11.225Z,4.30
2017-11-27T13:36:39.553Z,4.20
2017-11-27T13:39:07.096Z,4.20
2017-11-27T13:41:34.647Z,4.20
2017-11-27T13:44:02.190Z,4.20
2017-11-27T13:46:30.495Z,4.10
2017-11-27T13:48:58.043Z,4.10
2017-11-27T13:51:25.623Z,4.10
2017-11-27T13:53:53.163Z,4.10
2017-11-27T13:56:20.710Z,4.10
2017-11-27T13:58:48.247Z,4.10
2017-11-27T14:01:15.803Z,4.10
2017-11-27T14:03:43.323Z,4.00
2017-11-27T14:06:10.901Z,4.00
2017-11-27T14:08:39.201Z,4.00
2017-11-27T14:11:06.730Z,3.90
2017-11-27T14:13:34.300Z,3.90
2017-11-27T14:16:01.842Z,4.00
2017-11-27T14:18:29.386Z,4.00
2017-11-27T14:20:57.690Z,4.00
2017-11-27T14:23:25.235Z,4.00
2017-11-27T14:25:52.761Z,4.00
2017-11-27T14:28:20.320Z,3.90
2017-11-27T14:30:47.871Z,3.90
2017-11-27T14:33:15.424Z,3.90
2017-11-27T14:35:42.993Z,4.00
2017-11-27T14:38:10.566Z,4.00
2017-11-27T14:40:38.878Z,3.90
2017-11-27T14:43:06.449Z,3.90
2017-11-27T14:45:34.007Z,3.90
2017-11-27T14:48:02.314Z,4.00
2017-11-27T14:50:29.859Z,4.00
2017-11-27T14:52:57.438Z,4.00
2017-11-27T14:55:24.991Z,4.00
2017-11-27T14:57:52.559Z,4.00
2017-11-27T15:00:20.114Z,4.00
2017-11-27T15:02:47.638Z,4.10
2017-11-27T15:05:15.250Z,4.10
2017-11-27T15:07:42.790Z,4.10
2017-11-27T15:10:10.370Z,4.10
2017-11-27T15:12:37.926Z,4.20
2017-11-27T15:15:05.476Z,4.10
2017-11-27T15:17:33.015Z,4.10
2017-11-27T15:20:00.553Z,4.10
2017-11-27T15:22:28.868Z,4.00
2017-11-27T15:24:56.407Z,4.00
2017-11-27T15:27:23.955Z,4.00
2017-11-27T15:29:52.265Z,3.90
2017-11-27T15:32:19.816Z,3.90
2017-11-27T15:34:47.350Z,4.00
2017-11-27T15:37:15.668Z,4.00
2017-11-27T15:39:44.227Z,4.00
2017-11-27T15:42:11.809Z,4.00
2017-11-27T15:44:39.349Z,4.00
2017-11-27T15:47:06.925Z,4.00
2017-11-27T15:49:34.501Z,4.00
2017-11-27T15:52:02.054Z,3.90
2017-11-27T15:54:29.598Z,3.90
2017-11-27T15:56:58.004Z,3.90
2017-11-27T15:59:25.538Z,3.90
2017-11-27T16:01:53.076Z,3.90
2017-11-27T16:04:21.394Z,3.80
2017-11-27T16:06:49.050Z,3.80
2017-11-27T16:09:16.632Z,3.90
2017-11-27T16:11:44.166Z,3.90
2017-11-27T16:14:11.727Z,3.80
2017-11-27T16:16:39.251Z,3.80
2017-11-27T16:19:07.578Z,3.80
2017-11-27T16:21:35.126Z,3.80
2017-11-27T16:24:02.687Z,3.80
2017-11-27T16:26:30.237Z,3.80
2017-11-27T16:28:57.796Z,3.80
2017-11-27T16:31:25.310Z,3.80
2017-11-27T16:33:52.866Z,3.80
2017-11-27T16:36:20.391Z,3.80
2017-11-27T16:38:47.962Z,3.80
2017-11-27T16:41:15.510Z,3.70
2017-11-27T16:43:43.042Z,3.70
2017-11-27T16:46:10.590Z,3.70
2017-11-27T16:48:38.916Z,3.70
2017-11-27T16:51:06.490Z,3.70
2017-11-27T16:53:34.040Z,3.70
2017-11-27T16:56:01.591Z,3.70
2017-11-27T16:58:29.159Z,3.60
2017-11-27T17:00:56.688Z,3.60
2017-11-27T17:03:24.277Z,3.70
2017-11-27T17:05:51.840Z,3.60
2017-11-27T17:08:19.369Z,3.60
2017-11-27T17:10:46.939Z,3.60
2017-11-27T17:13:14.493Z,3.60
2017-11-27T17:15:42.044Z,3.60
2017-11-27T17:18:09.570Z,3.70
2017-11-27T17:20:37.149Z,3.60
2017-11-27T17:23:04.690Z,3.60
2017-11-27T17:25:32.241Z,3.60
2017-11-27T17:27:59.792Z,3.60
2017-11-27T17:30:27.336Z,3.60
2017-11-27T17:32:55.679Z,3.70
2017-11-27T17:35:23.213Z,3.70
2017-11-27T17:37:50.763Z,3.60
2017-11-27T17:40:18.291Z,3.60
2017-11-27T17:42:46.634Z,3.60
2017-11-27T17:45:14.171Z,3.60
2017-11-27T17:47:41.737Z,3.60
2017-11-27T17:50:10.072Z,3.70
2017-11-27T17:52:37.638Z,3.60
2017-11-27T17:55:05.171Z,3.70
2017-11-27T17:57:32.719Z,3.70
2017-11-27T18:00:00.271Z,3.70
2017-11-27T18:02:27.898Z,3.60
2017-11-27T18:04:55.426Z,3.70
2017-11-27T18:07:22.970Z,3.70
2017-11-27T18:09:50.530Z,3.70
2017-11-27T18:12:18.096Z,3.70
2017-11-27T18:14:46.437Z,3.70
2017-11-27T18:17:13.964Z,3.60
2017-11-27T18:19:41.515Z,3.70
2017-11-27T18:22:09.105Z,3.60
2017-11-27T18:24:36.738Z,3.70
2017-11-27T18:27:04.275Z,3.60
2017-11-27T18:29:32.595Z,3.60
2017-11-27T18:32:00.134Z,3.60
2017-11-27T18:34:28.472Z,3.70
2017-11-27T18:36:56.039Z,3.70
2017-11-27T18:39:24.350Z,3.70
2017-11-27T18:41:51.971Z,3.70
2017-11-27T18:44:19.532Z,3.70
2017-11-27T18:46:48.568Z,3.70
2017-11-27T18:49:16.137Z,3.70
2017-11-27T18:51:43.773Z,3.80
2017-11-27T18:54:11.316Z,3.70
2017-11-27T18:56:39.419Z,3.70
2017-11-27T18:59:06.976Z,3.70
2017-11-27T19:01:34.539Z,3.70
2017-11-27T19:04:02.122Z,3.70
2017-11-27T19:06:29.691Z,3.70
2017-11-27T19:08:57.993Z,3.70
2017-11-27T19:11:26.315Z,3.60
2017-11-27T19:13:53.859Z,3.60
2017-11-27T19:16:21.452Z,3.60
2017-11-27T19:18:49.756Z,3.60
2017-11-27T19:21:18.078Z,3.60
2017-11-27T19:23:45.623Z,3.60
2017-11-27T19:26:13.183Z,3.60
2017-11-27T19:28:40.743Z,3.60
2017-11-27T19:31:08.295Z,3.60
2017-11-27T19:33:35.877Z,3.70
2017-11-27T19:36:03.427Z,3.70
2017-11-27T19:38:31.010Z,3.70
2017-11-27T19:40:59.334Z,3.70
2017-11-27T19:43:26.883Z,3.70
2017-11-27T19:45:54.527Z,3.70
2017-11-27T19:48:22.102Z,3.70
2017-11-27T19:50:49.677Z,3.70
2017-11-27T19:53:17.229Z,3.70
2017-11-27T19:55:44.771Z,3.70
2017-11-27T19:58:12.349Z,3.70
2017-11-27T20:00:39.884Z,3.70
2017-11-27T20:03:07.448Z,3.70
2017-11-27T20:05:35.024Z,3.80
2017-11-27T20:08:02.591Z,3.70
2017-11-27T20:10:30.130Z,3.80
2017-11-27T20:12:57.705Z,3.80
2017-11-27T20:15:25.379Z,3.80
2017-11-27T20:17:52.970Z,3.80
2017-11-27T20:20:20.527Z,3.80
2017-11-27T20:22:48.081Z,3.80
2017-11-27T20:25:15.622Z,3.80
2017-11-27T20:27:43.186Z,3.80
2017-11-27T20:30:10.756Z,3.80
2017-11-27T20:32:38.294Z,3.70
2017-11-27T20:35:05.850Z,3.70
2017-11-27T20:37:34.183Z,3.70
2017-11-27T20:40:01.762Z,3.70
2017-11-27T20:42:29.314Z,3.70
2017-11-27T20:44:56.880Z,3.70
2017-11-27T20:47:24.422Z,3.80
2017-11-27T20:49:52.000Z,3.70
2017-11-27T20:52:19.569Z,3.70
2017-11-27T20:54:47.130Z,3.80
2017-11-27T20:57:14.724Z,3.80
2017-11-27T20:59:43.046Z,3.80
2017-11-27T21:02:10.592Z,3.80
2017-11-27T21:04:38.153Z,3.80
2017-11-27T21:07:05.690Z,3.80
2017-11-27T21:09:34.019Z,3.80
2017-11-27T21:12:01.605Z,3.80
2017-11-27T21:14:29.166Z,3.80
2017-11-27T21:16:56.735Z,3.80
2017-11-27T21:19:24.295Z,3.80
2017-11-27T21:21:51.863Z,3.70
2017-11-27T21:24:20.276Z,3.70
2017-11-27T21:26:47.856Z,3.70
2017-11-27T21:29:15.405Z,3.70
2017-11-27T21:31:42.975Z,3.70
2017-11-27T21:34:10.539Z,3.70
2017-11-27T21:36:38.103Z,3.70
2017-11-27T21:39:05.652Z,3.70
2017-11-27T21:41:33.241Z,3.70
2017-11-27T21:44:00.778Z,3.70
2017-11-27T21:46:28.350Z,3.70
2017-11-27T21:48:55.927Z,3.70
2017-11-27T21:51:23.508Z,3.70
2017-11-27T21:53:51.865Z,3.70
2017-11-27T21:56:20.559Z,3.70
2017-11-27T21:58:48.891Z,3.70
2017-11-27T22:01:16.421Z,3.60
2017-11-27T22:03:44.767Z,3.70
2017-11-27T22:06:13.075Z,3.70
2017-11-27T22:08:41.685Z,3.70
2017-11-27T22:11:09.228Z,3.70
2017-11-27T22:13:36.811Z,3.70
2017-11-27T22:16:04.394Z,3.70
2017-11-27T22:18:31.920Z,3.70
2017-11-27T22:21:00.534Z,3.70
2017-11-27T22:23:28.085Z,3.60
2017-11-27T22:25:55.643Z,3.70
2017-11-27T22:28:24.193Z,3.70
2017-11-27T22:30:51.730Z,3.60
2017-11-27T22:33:20.042Z,3.70
2017-11-27T22:35:47.716Z,3.70
2017-11-27T22:38:15.239Z,3.60
2017-11-27T22:40:43.552Z,3.60
2017-11-27T22:43:11.883Z,3.70
2017-11-27T22:45:39.439Z,3.60
2017-11-27T22:48:07.020Z,3.60
2017-11-27T22:50:34.575Z,3.60
2017-11-27T22:53:02.137Z,3.60
2017-11-27T22:55:29.691Z,3.60
2017-11-27T22:57:57.246Z,3.60
2017-11-27T23:00:24.767Z,3.60
2017-11-27T23:02:56.006Z,3.60
2017-11-27T23:05:23.537Z,3.60
2017-11-27T23:07:51.127Z,3.60
2017-11-27T23:10:18.687Z,3.60
2017-11-27T23:12:46.240Z,3.60
2017-11-27T23:15:13.783Z,3.60
2017-11-27T23:17:42.108Z,3.60
2017-11-27T23:20:09.661Z,3.60
2017-11-27T23:22:37.213Z,3.60
2017-11-27T23:25:04.775Z,3.60
2017-11-27T23:27:32.323Z,3.60
2017-11-27T23:29:59.870Z,3.60
2017-11-27T23:32:28.179Z,3.60
2017-11-27T23:34:55.750Z,3.60
2017-11-27T23:37:23.282Z,3.60
2017-11-27T23:39:50.850Z,3.60
2017-11-27T23:42:18.415Z,3.70
2017-11-27T23:44:46.014Z,3.70
2017-11-27T23:47:13.567Z,3.70
2017-11-27T23:49:41.085Z,3.60
2017-11-27T23:52:08.628Z,3.60
2017-11-27T23:54:36.923Z,3.70
2017-11-27T23:57:04.483Z,3.70
2017-11-27T23:59:32.018Z,3.70
